createdAt,value
2023-01-29T00:00:27.777Z,64.32
2023-01-29T00:02:54.162Z,64.15
2023-01-29T00:05:27.777Z,64.08
2023-01-29T00:07:54.663Z,64.10
2023-01-29T00:10:21.130Z,64.29
2023-01-29T00:12:47.530Z,64.21
2023-01-29T00:15:13.932Z,64.49
2023-01-29T00:17:40.330Z,64.37
2023-01-29T00:20:06.754Z,64.35
2023-01-29T00:22:33.189Z,64.04
2023-01-29T00:24:59.585Z,64.47
2023-01-29T00:27:25.996Z,64.59
2023-01-29T00:29:52.361Z,64.45
2023-01-29T00:32:18.839Z,64.33
2023-01-29T00:34:45.233Z,64.42
2023-01-29T00:37:11.604Z,64.24
2023-01-29T00:39:47.569Z,64.67
2023-01-29T00:42:14.377Z,64.79
2023-01-29T00:44:40.781Z,64.65
2023-01-29T00:47:07.155Z,64.40
2023-01-29T00:49:33.575Z,64.52
2023-01-29T00:51:59.998Z,64.32
2023-01-29T00:54:26.388Z,63.82
2023-01-29T00:56:52.753Z,63.57
2023-01-29T00:59:19.150Z,63.71
2023-01-29T01:01:45.777Z,63.90
2023-01-29T01:04:12.207Z,64.28
2023-01-29T01:06:38.571Z,64.59
2023-01-29T01:09:04.956Z,64.83
2023-01-29T01:11:31.328Z,64.99
2023-01-29T01:13:57.699Z,64.50
2023-01-29T01:16:24.095Z,65.04
2023-01-29T01:18:50.542Z,64.98
2023-01-29T01:21:16.926Z,64.80
2023-01-29T01:23:43.306Z,65.03
2023-01-29T01:26:09.691Z,65.05
2023-01-29T01:28:36.084Z,65.03
2023-01-29T01:31:02.484Z,64.96
2023-01-29T01:33:28.864Z,65.05
2023-01-29T01:35:55.244Z,64.73
2023-01-29T01:38:21.635Z,65.00
2023-01-29T01:40:48.122Z,65.17
2023-01-29T01:43:14.512Z,65.37
2023-01-29T01:45:40.955Z,65.49
2023-01-29T01:48:07.411Z,65.47
2023-01-29T01:50:33.822Z,65.37
2023-01-29T01:53:00.216Z,65.31
2023-01-29T01:55:26.578Z,65.55
2023-01-29T01:57:52.978Z,65.96
2023-01-29T02:00:19.361Z,66.20
2023-01-29T02:02:45.743Z,66.30
2023-01-29T02:05:12.111Z,65.77
2023-01-29T02:07:38.487Z,66.15
2023-01-29T02:10:04.900Z,65.91
2023-01-29T02:12:31.354Z,65.50
2023-01-29T02:14:57.744Z,65.50
2023-01-29T02:17:24.247Z,65.87
2023-01-29T02:19:50.683Z,65.61
2023-01-29T02:22:17.088Z,65.24
2023-01-29T02:24:43.614Z,65.08
2023-01-29T02:27:10.029Z,65.60
2023-01-29T02:29:36.424Z,65.91
2023-01-29T02:32:02.849Z,66.13
2023-01-29T02:34:29.290Z,65.87
2023-01-29T02:36:55.741Z,65.34
2023-01-29T02:39:22.149Z,65.57
2023-01-29T02:41:48.505Z,65.82
2023-01-29T02:44:14.892Z,65.70
2023-01-29T02:46:41.279Z,66.22
2023-01-29T02:49:07.671Z,65.71
2023-01-29T02:51:34.025Z,65.26
2023-01-29T02:54:00.400Z,65.12
2023-01-29T02:56:26.876Z,65.11
2023-01-29T02:58:53.281Z,65.37
2023-01-29T03:01:19.783Z,65.56
2023-01-29T03:03:46.204Z,65.34
2023-01-29T03:06:12.573Z,65.15
2023-01-29T03:08:38.946Z,64.61
2023-01-29T03:11:05.335Z,64.49
2023-01-29T03:13:31.734Z,64.30
2023-01-29T03:15:58.162Z,65.15
2023-01-29T03:18:24.548Z,64.95
2023-01-29T03:20:51.018Z,64.06
2023-01-29T03:23:17.400Z,64.15
2023-01-29T03:25:43.863Z,63.98
2023-01-29T03:28:10.233Z,63.55
2023-01-29T03:30:36.593Z,63.70
2023-01-29T03:33:03.102Z,63.53
2023-01-29T03:35:29.494Z,63.54
2023-01-29T03:37:55.878Z,63.55
2023-01-29T03:40:22.269Z,63.36
2023-01-29T03:42:48.711Z,63.98
2023-01-29T03:45:15.104Z,63.70
2023-01-29T03:47:41.531Z,63.91
2023-01-29T03:50:07.900Z,63.81
2023-01-29T03:52:34.276Z,63.84
2023-01-29T03:55:00.688Z,63.81
2023-01-29T03:57:27.082Z,63.47
2023-01-29T03:59:53.471Z,62.95
2023-01-29T04:02:19.858Z,63.29
2023-01-29T04:04:46.234Z,63.28
2023-01-29T04:07:12.688Z,63.63
2023-01-29T04:09:39.112Z,63.29
2023-01-29T04:12:05.517Z,63.98
2023-01-29T04:14:31.964Z,64.46
2023-01-29T04:16:58.426Z,64.03
2023-01-29T04:19:24.818Z,63.42
2023-01-29T04:21:51.186Z,63.53
2023-01-29T04:24:17.596Z,62.93
2023-01-29T04:26:44.104Z,63.19
2023-01-29T04:29:10.476Z,63.19
2023-01-29T04:31:36.946Z,62.56
2023-01-29T04:34:03.405Z,62.79
2023-01-29T04:36:29.785Z,62.90
2023-01-29T04:38:56.184Z,63.11
2023-01-29T04:41:22.588Z,63.00
2023-01-29T04:43:48.975Z,62.87
2023-01-29T04:46:15.363Z,63.00
2023-01-29T04:48:41.774Z,63.10
2023-01-29T04:51:08.140Z,63.43
2023-01-29T04:53:34.524Z,63.26
2023-01-29T04:56:01.027Z,62.83
2023-01-29T04:58:27.395Z,63.08
2023-01-29T05:00:53.777Z,62.79
2023-01-29T05:03:20.163Z,62.72
2023-01-29T05:05:46.625Z,62.98
2023-01-29T05:08:12.995Z,62.78
2023-01-29T05:10:39.367Z,62.48
2023-01-29T05:13:05.768Z,62.43
2023-01-29T05:15:32.384Z,62.32
2023-01-29T05:17:58.776Z,62.78
2023-01-29T05:20:25.145Z,62.82
2023-01-29T05:22:51.525Z,62.71
2023-01-29T05:25:17.916Z,63.01
2023-01-29T05:27:44.285Z,62.77
2023-01-29T05:30:10.667Z,62.89
2023-01-29T05:32:37.053Z,63.34
2023-01-29T05:35:03.433Z,63.23
2023-01-29T05:37:29.829Z,64.02
2023-01-29T05:39:56.224Z,63.08
2023-01-29T05:42:22.597Z,62.39
2023-01-29T05:44:48.992Z,62.68
2023-01-29T05:47:15.452Z,62.45
2023-01-29T05:49:42.106Z,62.30
2023-01-29T05:52:08.487Z,62.26
2023-01-29T05:54:34.901Z,62.21
2023-01-29T05:57:01.262Z,62.85
2023-01-29T05:59:27.681Z,62.62
2023-01-29T06:01:54.124Z,62.40
2023-01-29T06:04:20.583Z,62.55
2023-01-29T06:06:46.981Z,62.29
2023-01-29T06:09:13.444Z,61.95
2023-01-29T06:11:39.842Z,61.79
2023-01-29T06:14:06.297Z,61.43
2023-01-29T06:16:32.728Z,61.47
2023-01-29T06:18:59.127Z,61.56
2023-01-29T06:21:25.567Z,61.47
2023-01-29T06:23:51.945Z,61.74
2023-01-29T06:26:18.430Z,61.46
2023-01-29T06:28:44.823Z,61.00
2023-01-29T06:31:27.416Z,61.60
2023-01-29T06:33:57.535Z,61.55
2023-01-29T06:36:23.906Z,60.92
2023-01-29T06:38:50.365Z,60.76
2023-01-29T06:41:16.745Z,60.63
2023-01-29T06:43:43.121Z,61.01
2023-01-29T06:46:09.492Z,61.38
2023-01-29T06:48:35.871Z,61.32
2023-01-29T06:51:02.268Z,61.22
2023-01-29T06:53:28.638Z,61.35
2023-01-29T06:55:55.143Z,61.13
2023-01-29T06:58:21.529Z,60.78
2023-01-29T07:00:47.964Z,60.94
2023-01-29T07:03:14.398Z,61.14
2023-01-29T07:05:40.884Z,60.64
2023-01-29T07:08:07.339Z,61.53
2023-01-29T07:10:33.728Z,61.04
2023-01-29T07:13:00.173Z,61.43
2023-01-29T07:15:26.567Z,60.70
2023-01-29T07:17:52.951Z,60.81
2023-01-29T07:20:19.397Z,60.60
2023-01-29T07:22:45.770Z,60.48
2023-01-29T07:25:12.171Z,61.21
2023-01-29T07:27:38.789Z,60.81
2023-01-29T07:30:05.209Z,60.59
2023-01-29T07:32:31.576Z,60.92
2023-01-29T07:34:57.978Z,60.74
2023-01-29T07:37:24.381Z,59.93
2023-01-29T07:39:50.763Z,60.43
2023-01-29T07:42:17.148Z,60.15
2023-01-29T07:44:43.531Z,59.78
2023-01-29T07:47:10.091Z,59.00
2023-01-29T07:49:36.469Z,59.55
2023-01-29T07:52:03.070Z,59.65
2023-01-29T07:54:29.503Z,60.00
2023-01-29T07:56:55.881Z,60.20
2023-01-29T07:59:22.387Z,60.97
2023-01-29T08:01:48.789Z,59.97
2023-01-29T08:04:15.245Z,59.91
2023-01-29T08:06:41.627Z,59.98
2023-01-29T08:09:07.998Z,59.61
2023-01-29T08:11:34.370Z,59.30
2023-01-29T08:14:00.765Z,59.50
2023-01-29T08:16:27.666Z,59.29
2023-01-29T08:18:54.097Z,59.43
2023-01-29T08:21:20.482Z,59.06
2023-01-29T08:23:46.852Z,59.07
2023-01-29T08:26:13.236Z,59.18
2023-01-29T08:28:39.652Z,58.96
2023-01-29T08:31:06.076Z,58.96
2023-01-29T08:33:39.675Z,59.66
2023-01-29T08:36:06.045Z,59.60
2023-01-29T08:38:32.427Z,59.61
2023-01-29T08:40:58.808Z,59.33
2023-01-29T08:43:25.212Z,58.78
2023-01-29T08:45:51.631Z,58.83
2023-01-29T08:48:18.059Z,59.24
2023-01-29T08:50:44.437Z,59.03
2023-01-29T08:53:10.872Z,59.15
2023-01-29T08:55:37.233Z,59.27
2023-01-29T08:58:03.612Z,58.84
2023-01-29T09:00:31.556Z,58.87
2023-01-29T09:02:57.916Z,58.36
2023-01-29T09:05:24.297Z,58.03
2023-01-29T09:07:52.626Z,58.12
2023-01-29T09:10:19.712Z,58.54
2023-01-29T09:12:46.317Z,57.75
2023-01-29T09:15:12.693Z,57.25
2023-01-29T09:17:39.065Z,56.85
2023-01-29T09:20:05.424Z,57.19
2023-01-29T09:22:31.814Z,57.61
2023-01-29T09:24:58.199Z,57.69
2023-01-29T09:27:24.590Z,57.83
2023-01-29T09:29:51.109Z,58.09
2023-01-29T09:32:37.696Z,57.76
2023-01-29T09:35:03.837Z,57.24
2023-01-29T09:37:30.219Z,56.81
2023-01-29T09:39:56.614Z,56.39
2023-01-29T09:42:22.991Z,57.04
2023-01-29T09:44:49.395Z,57.27
2023-01-29T09:47:15.817Z,57.08
2023-01-29T09:49:42.241Z,57.24
2023-01-29T09:52:08.651Z,56.83
2023-01-29T09:54:35.146Z,56.58
2023-01-29T09:57:01.575Z,56.47
2023-01-29T09:59:27.966Z,56.30
2023-01-29T10:01:54.415Z,56.68
2023-01-29T10:04:20.954Z,56.54
2023-01-29T10:06:47.328Z,56.99
2023-01-29T10:09:13.757Z,56.52
2023-01-29T10:11:40.168Z,57.00
2023-01-29T10:14:06.543Z,57.04
2023-01-29T10:16:32.906Z,57.29
2023-01-29T10:18:59.340Z,56.91
2023-01-29T10:21:25.776Z,56.73
2023-01-29T10:23:52.225Z,56.58
2023-01-29T10:26:18.640Z,56.87
2023-01-29T10:28:45.030Z,56.80
2023-01-29T10:31:11.667Z,56.93
2023-01-29T10:33:49.307Z,56.05
2023-01-29T10:36:20.738Z,56.25
2023-01-29T10:38:47.103Z,56.15
2023-01-29T10:41:13.476Z,55.69
2023-01-29T10:43:39.881Z,55.78
2023-01-29T10:46:06.304Z,55.77
2023-01-29T10:48:32.683Z,56.22
2023-01-29T10:50:59.107Z,56.59
2023-01-29T10:53:25.496Z,55.96
2023-01-29T10:55:51.897Z,55.71
2023-01-29T10:58:18.356Z,56.14
2023-01-29T11:00:44.714Z,56.22
2023-01-29T11:03:18.166Z,55.92
2023-01-29T11:05:52.635Z,56.89
2023-01-29T11:08:19.034Z,57.59
2023-01-29T11:10:45.404Z,56.86
2023-01-29T11:13:11.853Z,56.66
2023-01-29T11:15:38.229Z,56.36
2023-01-29T11:18:04.602Z,56.13
2023-01-29T11:20:30.996Z,56.69
2023-01-29T11:22:57.399Z,56.23
2023-01-29T11:25:23.805Z,56.37
2023-01-29T11:27:50.225Z,56.10
2023-01-29T11:30:16.849Z,56.58
2023-01-29T11:32:43.425Z,55.67
2023-01-29T11:35:09.812Z,55.80
2023-01-29T11:37:36.183Z,56.46
2023-01-29T11:40:02.544Z,56.62
2023-01-29T11:42:28.907Z,56.71
2023-01-29T11:44:55.300Z,56.44
2023-01-29T11:47:21.734Z,56.16
2023-01-29T11:49:48.114Z,55.97
2023-01-29T11:52:14.678Z,56.02
2023-01-29T11:54:41.288Z,55.44
2023-01-29T11:57:07.651Z,54.51
2023-01-29T11:59:34.022Z,55.26
2023-01-29T12:02:00.467Z,54.61
2023-01-29T12:04:26.843Z,55.14
2023-01-29T12:06:53.227Z,56.54
2023-01-29T12:09:19.610Z,55.99
2023-01-29T12:11:46.067Z,55.81
2023-01-29T12:14:12.441Z,55.25
2023-01-29T12:16:38.816Z,55.53
2023-01-29T12:19:05.208Z,56.98
2023-01-29T12:21:31.652Z,56.70
2023-01-29T12:23:58.056Z,57.72
2023-01-29T12:26:24.497Z,57.94
2023-01-29T12:28:50.895Z,57.66
2023-01-29T12:31:17.337Z,58.64
2023-01-29T12:33:43.710Z,58.34
2023-01-29T12:36:10.984Z,58.22
2023-01-29T12:38:37.407Z,58.18
2023-01-29T12:41:03.788Z,58.93
2023-01-29T12:43:30.157Z,58.96
2023-01-29T12:45:56.539Z,59.48
2023-01-29T12:48:23.005Z,59.36
2023-01-29T12:50:49.369Z,58.99
2023-01-29T12:53:15.749Z,57.65
2023-01-29T12:55:42.123Z,57.94
2023-01-29T12:58:08.488Z,57.60
2023-01-29T13:00:34.901Z,57.08
2023-01-29T13:03:01.355Z,57.15
2023-01-29T13:05:27.781Z,56.40
2023-01-29T13:07:54.163Z,56.96
2023-01-29T13:10:20.551Z,56.23
2023-01-29T13:12:46.928Z,55.60
2023-01-29T13:15:13.350Z,55.54
2023-01-29T13:17:39.744Z,55.37
2023-01-29T13:20:06.142Z,54.90
2023-01-29T13:22:32.516Z,55.29
2023-01-29T13:25:05.060Z,55.36
2023-01-29T13:27:32.168Z,55.43
2023-01-29T13:29:58.633Z,55.46
2023-01-29T13:32:25.049Z,54.55
2023-01-29T13:34:51.435Z,54.74
2023-01-29T13:37:17.877Z,54.25
2023-01-29T13:39:44.357Z,55.13
2023-01-29T13:42:10.763Z,55.56
2023-01-29T13:44:37.162Z,55.99
2023-01-29T13:47:03.569Z,56.51
2023-01-29T13:49:29.972Z,56.32
2023-01-29T13:51:56.375Z,56.61
2023-01-29T13:54:22.779Z,55.58
2023-01-29T13:56:49.162Z,55.53
2023-01-29T13:59:15.574Z,55.42
2023-01-29T14:01:41.996Z,54.96
2023-01-29T14:04:08.435Z,55.17
2023-01-29T14:06:34.824Z,55.95
2023-01-29T14:09:01.256Z,55.71
2023-01-29T14:11:27.661Z,55.26
2023-01-29T14:13:54.088Z,55.00
2023-01-29T14:16:20.496Z,54.84
2023-01-29T14:18:46.883Z,55.27
2023-01-29T14:21:13.276Z,54.91
2023-01-29T14:23:39.668Z,55.14
2023-01-29T14:26:06.126Z,55.32
2023-01-29T14:28:32.551Z,55.40
2023-01-29T14:30:59.077Z,55.58
2023-01-29T14:33:25.553Z,55.85
2023-01-29T14:35:52.006Z,55.67
2023-01-29T14:38:18.405Z,55.56
2023-01-29T14:40:44.774Z,55.86
2023-01-29T14:43:11.175Z,55.71
2023-01-29T14:45:37.575Z,55.56
2023-01-29T14:48:03.984Z,56.02
2023-01-29T14:50:30.411Z,56.09
2023-01-29T14:52:56.843Z,55.91
2023-01-29T14:55:23.251Z,55.34
2023-01-29T14:57:49.739Z,55.68
2023-01-29T15:00:16.104Z,56.04
2023-01-29T15:02:42.525Z,56.07
2023-01-29T15:05:08.910Z,55.90
2023-01-29T15:07:35.281Z,55.45
2023-01-29T15:10:21.057Z,55.52
2023-01-29T15:12:48.024Z,55.39
2023-01-29T15:15:14.885Z,54.94
2023-01-29T15:17:41.532Z,54.53
2023-01-29T15:20:07.914Z,54.60
2023-01-29T15:22:34.381Z,54.53
2023-01-29T15:25:00.774Z,54.42
2023-01-29T15:27:27.241Z,54.54
2023-01-29T15:29:53.615Z,54.53
2023-01-29T15:32:20.004Z,54.09
2023-01-29T15:34:46.413Z,53.88
2023-01-29T15:37:12.797Z,54.39
2023-01-29T15:39:40.989Z,54.20
2023-01-29T15:42:07.417Z,53.60
2023-01-29T15:44:33.791Z,54.23
2023-01-29T15:47:00.242Z,54.34
2023-01-29T15:49:26.672Z,52.75
2023-01-29T15:51:53.057Z,53.34
2023-01-29T15:54:19.447Z,53.72
2023-01-29T15:56:45.836Z,54.19
2023-01-29T15:59:12.221Z,54.54
2023-01-29T16:01:38.657Z,54.99
2023-01-29T16:04:05.070Z,55.43
2023-01-29T16:06:31.475Z,55.65
2023-01-29T16:08:57.997Z,55.68
2023-01-29T16:11:24.361Z,55.82
2023-01-29T16:13:50.745Z,56.09
2023-01-29T16:16:17.209Z,55.58
2023-01-29T16:18:57.814Z,55.44
2023-01-29T16:21:25.786Z,55.18
2023-01-29T16:23:52.174Z,55.49
2023-01-29T16:26:18.588Z,56.24
2023-01-29T16:28:45.028Z,56.23
2023-01-29T16:31:11.518Z,56.47
2023-01-29T16:33:37.954Z,56.98
2023-01-29T16:36:04.317Z,56.99
2023-01-29T16:38:30.707Z,57.29
2023-01-29T16:40:57.070Z,57.16
2023-01-29T16:43:26.207Z,57.40
2023-01-29T16:45:54.696Z,57.53
2023-01-29T16:48:21.134Z,56.86
2023-01-29T16:50:54.960Z,56.92
2023-01-29T16:53:21.820Z,57.21
2023-01-29T16:55:48.198Z,56.99
2023-01-29T16:58:14.594Z,57.59
2023-01-29T17:00:41.002Z,56.40
2023-01-29T17:03:07.459Z,57.07
2023-01-29T17:05:33.853Z,56.71
2023-01-29T17:08:00.286Z,56.52
2023-01-29T17:10:26.687Z,56.51
2023-01-29T17:12:53.076Z,57.05
2023-01-29T17:15:19.612Z,64.46
2023-01-29T17:17:46.115Z,56.78
2023-01-29T17:20:12.525Z,56.54
2023-01-29T17:22:38.901Z,56.95
2023-01-29T17:25:05.294Z,56.32
2023-01-29T17:27:31.653Z,56.99
2023-01-29T17:29:58.039Z,57.34
2023-01-29T17:32:24.547Z,57.85
2023-01-29T17:34:51.024Z,58.28
2023-01-29T17:37:17.391Z,58.48
2023-01-29T17:39:43.793Z,58.72
2023-01-29T17:42:10.159Z,58.82
2023-01-29T17:44:36.530Z,58.83
2023-01-29T17:47:02.908Z,58.97
2023-01-29T17:49:29.321Z,58.73
2023-01-29T17:51:55.719Z,57.84
2023-01-29T17:54:22.139Z,58.24
2023-01-29T17:56:48.588Z,58.77
2023-01-29T17:59:14.996Z,59.07
2023-01-29T18:01:41.459Z,59.15
2023-01-29T18:04:07.889Z,59.47
2023-01-29T18:06:34.323Z,59.62
2023-01-29T18:09:00.728Z,60.11
2023-01-29T18:11:29.459Z,60.04
2023-01-29T18:13:55.843Z,59.48
2023-01-29T18:16:22.375Z,59.32
2023-01-29T18:18:48.916Z,59.96
2023-01-29T18:21:15.295Z,60.29
2023-01-29T18:23:41.678Z,60.67
2023-01-29T18:26:08.099Z,60.65
2023-01-29T18:28:34.542Z,60.67
2023-01-29T18:31:00.971Z,60.78
2023-01-29T18:33:27.393Z,60.35
2023-01-29T18:35:53.766Z,60.52
2023-01-29T18:38:20.199Z,59.84
2023-01-29T18:40:46.626Z,60.13
2023-01-29T18:43:13.019Z,60.22
2023-01-29T18:45:42.014Z,60.52
2023-01-29T18:48:08.416Z,60.58
2023-01-29T18:50:34.804Z,60.21
2023-01-29T18:53:01.293Z,60.63
2023-01-29T18:55:27.682Z,60.91
2023-01-29T18:58:29.020Z,60.50
2023-01-29T19:00:40.520Z,61.41
2023-01-29T19:03:06.916Z,61.47
2023-01-29T19:05:33.307Z,61.28
2023-01-29T19:07:59.700Z,61.38
2023-01-29T19:10:26.169Z,61.40
2023-01-29T19:12:52.551Z,61.20
2023-01-29T19:15:19.259Z,61.71
2023-01-29T19:17:46.036Z,61.77
2023-01-29T19:20:12.424Z,61.88
2023-01-29T19:22:38.845Z,61.69
2023-01-29T19:25:05.220Z,61.31
2023-01-29T19:27:31.598Z,61.63
2023-01-29T19:29:57.990Z,61.46
2023-01-29T19:32:24.368Z,61.76
2023-01-29T19:34:50.770Z,61.23
2023-01-29T19:37:17.173Z,61.12
2023-01-29T19:39:43.561Z,61.13
2023-01-29T19:42:09.950Z,61.10
2023-01-29T19:44:36.349Z,61.01
2023-01-29T19:47:02.995Z,61.32
2023-01-29T19:49:29.385Z,61.31
2023-01-29T19:51:55.787Z,61.21
2023-01-29T19:54:22.194Z,61.53
2023-01-29T19:56:48.588Z,61.19
2023-01-29T19:59:14.997Z,61.13
2023-01-29T20:01:41.830Z,61.26
2023-01-29T20:04:08.268Z,61.50
2023-01-29T20:06:34.628Z,61.37
2023-01-29T20:09:01.020Z,61.44
2023-01-29T20:11:27.396Z,61.46
2023-01-29T20:13:53.809Z,61.70
2023-01-29T20:16:20.359Z,61.58
2023-01-29T20:18:46.791Z,61.88
2023-01-29T20:21:13.170Z,61.97
2023-01-29T20:23:39.864Z,61.94
2023-01-29T20:26:06.453Z,62.28
2023-01-29T20:28:32.825Z,62.21
2023-01-29T20:30:59.259Z,62.13
2023-01-29T20:33:25.835Z,62.09
2023-01-29T20:35:52.324Z,62.21
2023-01-29T20:38:18.731Z,62.10
2023-01-29T20:40:45.112Z,62.44
2023-01-29T20:43:11.508Z,62.23
2023-01-29T20:45:37.954Z,62.11
2023-01-29T20:48:04.369Z,62.49
2023-01-29T20:50:30.877Z,62.42
2023-01-29T20:52:57.318Z,62.26
2023-01-29T20:55:23.912Z,62.04
2023-01-29T20:58:06.015Z,62.27
2023-01-29T21:00:33.369Z,61.97
2023-01-29T21:02:59.872Z,62.16
2023-01-29T21:05:26.282Z,61.63
2023-01-29T21:07:52.995Z,61.66
2023-01-29T21:10:19.659Z,61.67
2023-01-29T21:12:46.263Z,61.68
2023-01-29T21:15:12.741Z,61.79
2023-01-29T21:17:39.129Z,62.16
2023-01-29T21:20:05.551Z,62.02
2023-01-29T21:22:31.958Z,61.74
2023-01-29T21:24:58.402Z,61.82
2023-01-29T21:27:24.833Z,61.73
2023-01-29T21:29:51.241Z,61.13
2023-01-29T21:32:17.623Z,60.72
2023-01-29T21:34:44.005Z,61.56
2023-01-29T21:37:10.577Z,61.50
2023-01-29T21:39:36.969Z,61.40
2023-01-29T21:42:03.344Z,61.65
2023-01-29T21:44:29.803Z,61.28
2023-01-29T21:46:56.203Z,61.57
2023-01-29T21:49:22.612Z,61.60
2023-01-29T21:51:48.988Z,60.98
2023-01-29T21:54:15.374Z,60.75
2023-01-29T21:56:41.754Z,60.62
2023-01-29T21:59:08.153Z,60.84
2023-01-29T22:01:37.423Z,60.55
2023-01-29T22:04:04.906Z,60.57
2023-01-29T22:06:31.403Z,60.56
2023-01-29T22:08:58.983Z,60.67
2023-01-29T22:11:25.442Z,60.97
2023-01-29T22:13:53.955Z,60.85
2023-01-29T22:16:20.433Z,61.01
2023-01-29T22:18:46.861Z,60.97
2023-01-29T22:21:13.285Z,60.74
2023-01-29T22:23:39.827Z,60.79
2023-01-29T22:26:06.282Z,60.76
2023-01-29T22:28:32.694Z,60.83
2023-01-29T22:30:59.125Z,60.75
2023-01-29T22:33:25.569Z,60.67
2023-01-29T22:35:51.959Z,60.85
2023-01-29T22:38:18.342Z,60.98
2023-01-29T22:40:44.728Z,61.32
2023-01-29T22:43:11.104Z,61.08
2023-01-29T22:45:37.705Z,61.29
2023-01-29T22:48:04.388Z,61.29
2023-01-29T22:50:31.315Z,61.49
2023-01-29T22:52:57.701Z,61.03
2023-01-29T22:55:24.116Z,61.08
2023-01-29T22:57:50.497Z,60.95
2023-01-29T23:00:17.210Z,61.11
2023-01-29T23:02:43.821Z,61.02
2023-01-29T23:05:10.206Z,61.14
2023-01-29T23:07:36.621Z,61.08
2023-01-29T23:10:03.019Z,61.14
2023-01-29T23:12:29.499Z,61.15
2023-01-29T23:14:55.880Z,60.69
2023-01-29T23:17:22.281Z,60.90
2023-01-29T23:19:48.669Z,60.85
2023-01-29T23:22:15.069Z,60.86
2023-01-29T23:24:41.567Z,60.69
2023-01-29T23:27:08.031Z,60.35
2023-01-29T23:29:34.402Z,60.48
2023-01-29T23:32:00.783Z,60.47
2023-01-29T23:34:27.232Z,61.01
2023-01-29T23:36:53.609Z,61.68
2023-01-29T23:39:20.016Z,61.78
2023-01-29T23:41:46.385Z,61.66
2023-01-29T23:44:12.774Z,62.10
2023-01-29T23:46:39.192Z,61.76
2023-01-29T23:49:05.646Z,61.12
2023-01-29T23:51:32.077Z,61.50
2023-01-29T23:53:58.494Z,61.41
2023-01-29T23:56:24.859Z,61.74
2023-01-29T23:58:51.266Z,62.77
